Terminal Aerodrome Forecast
Issued by NWS

Home | Current Version | Previous Version | Graphics & Text | Print | Product List | Glossary On
Versions: 1 2 3 4 5 6 7 8 9 10 11 12 13 14 15 16 17
000
FTUS43 KGRB 260956 AAA
TAFCWA
TAF AMD
KCWA 260956Z 2610/2706 29006KT P6SM SCT012 SCT025
      TEMPO 2610/2612 BKN025
     FM261200 29009KT P6SM BKN020
     FM261400 30011G15KT P6SM VCSH BKN030
     FM262000 32013G21KT P6SM VCSH BKN035
     FM262300 32010KT P6SM FEW040 BKN100
     FM270100 31006KT P6SM SCT100=

USA.gov is the U.S. government's official web portal to all federal, state and local government web resources and services.